Time;durP1;ratioP1;P1;durP2;ratioP2;P2;SDS_P1;SDS_P2;PMS_P1;PMS_P2;Temp;Humidity;BMP_temperature;BMP_pressure;BME280_temperature;BME280_humidity;BME280_pressure;Samples;Min_cycle;Max_cycle;Signal;HPM_P1;HPM_P2
2023/09/29 00:00:35;;;;;;;18.17;4.18;;;;;;;16.94;100.00;101451.31;5047648;28;20467;-64
2023/09/29 00:03:01;;;;;;;15.90;4.03;;;;;;;17.00;100.00;101447.47;5047239;28;20048;-63
2023/09/29 00:05:27;;;;;;;23.73;4.70;;;;;;;16.97;100.00;101444.94;5063554;28;20441;-63
2023/09/29 00:07:53;;;;;;;19.40;4.45;;;;;;;16.99;100.00;101438.63;5046902;28;20033;-64
2023/09/29 00:10:20;;;;;;;16.98;3.80;;;;;;;16.98;100.00;101436.88;5047988;28;20067;-64
2023/09/29 00:12:46;;;;;;;14.95;4.40;;;;;;;17.01;100.00;101436.72;5045595;28;20032;-64
2023/09/29 00:15:12;;;;;;;19.70;4.25;;;;;;;17.08;100.00;101442.66;5048202;28;20025;-63
2023/09/29 00:17:38;;;;;;;15.85;4.28;;;;;;;17.04;100.00;101441.91;5047050;28;20051;-63
2023/09/29 00:20:19;;;;;;;15.98;4.07;;;;;;;17.05;100.00;101424.13;5047057;28;20414;-62
2023/09/29 00:22:45;;;;;;;17.45;3.85;;;;;;;17.08;100.00;101426.69;5047574;28;20028;-63
2023/09/29 00:25:11;;;;;;;17.33;4.13;;;;;;;17.13;100.00;101432.59;5047494;28;20029;-63
2023/09/29 00:27:36;;;;;;;18.95;3.97;;;;;;;17.14;100.00;101431.69;5047726;28;20029;-63
2023/09/29 00:30:05;;;;;;;19.13;5.05;;;;;;;17.19;100.00;101431.44;5047205;28;20517;-64
2023/09/29 00:32:31;;;;;;;20.90;4.47;;;;;;;17.14;100.00;101433.47;5032589;28;20364;-63
2023/09/29 00:34:57;;;;;;;16.80;4.32;;;;;;;17.10;100.00;101424.78;5047071;28;20032;-62
2023/09/29 00:37:23;;;;;;;16.80;4.32;;;;;;;17.09;100.00;101427.50;5047686;28;20036;-64
2023/09/29 00:39:48;;;;;;;16.88;4.20;;;;;;;17.17;100.00;101431.53;5046539;28;20021;-64
2023/09/29 00:42:13;;;;;;;17.10;4.10;;;;;;;17.14;100.00;101421.03;5046500;28;20155;-63
2023/09/29 00:44:39;;;;;;;17.73;4.00;;;;;;;17.04;100.00;101420.59;5043321;28;20100;-63
2023/09/29 00:47:05;;;;;;;16.50;4.10;;;;;;;17.08;100.00;101409.81;5026466;28;20021;-64
2023/09/29 00:49:30;;;;;;;16.58;4.10;;;;;;;17.05;100.00;101416.16;5027169;28;20037;-63
2023/09/29 00:51:59;;;;;;;20.50;4.45;;;;;;;17.10;100.00;101419.44;5027197;28;20825;-63
2023/09/29 00:54:27;;;;;;;23.40;4.72;;;;;;;17.13;100.00;101419.28;5016331;28;20506;-63
2023/09/29 00:56:53;;;;;;;14.25;3.83;;;;;;;17.18;100.00;101422.59;5025692;28;20021;-64
2023/09/29 00:59:18;;;;;;;13.93;3.67;;;;;;;17.22;100.00;101417.94;5025677;28;20040;-63
2023/09/29 01:01:44;;;;;;;18.35;4.68;;;;;;;17.26;100.00;101416.00;5029571;28;20494;-63
2023/09/29 01:04:10;;;;;;;19.80;4.53;;;;;;;17.24;100.00;101410.75;5047765;28;20114;-62
2023/09/29 01:06:35;;;;;;;20.25;4.72;;;;;;;17.17;100.00;101409.34;5050120;28;20110;-62
2023/09/29 01:09:01;;;;;;;16.98;3.83;;;;;;;17.23;100.00;101402.84;5129552;22;20143;-62
2023/09/29 01:11:26;;;;;;;15.35;4.10;;;;;;;17.17;100.00;101409.34;5071193;28;20025;-63
2023/09/29 01:13:51;;;;;;;19.05;4.40;;;;;;;17.09;100.00;101401.75;5070292;28;20024;-64
2023/09/29 01:16:17;;;;;;;17.13;4.30;;;;;;;17.07;100.00;101398.34;5070474;28;20033;-62
2023/09/29 01:18:43;;;;;;;14.27;4.53;;;;;;;17.06;100.00;101399.22;5071186;28;20474;-63
2023/09/29 01:21:08;;;;;;;15.00;4.07;;;;;;;17.04;100.00;101396.66;5087343;28;20023;-62
2023/09/29 01:23:34;;;;;;;17.80;4.38;;;;;;;16.99;100.00;101389.84;5070923;28;20028;-63
2023/09/29 01:26:02;;;;;;;12.80;4.40;;;;;;;16.99;100.00;101389.84;5077389;28;20021;-63
2023/09/29 01:28:28;;;;;;;25.13;4.68;;;;;;;16.96;100.00;101384.69;5051213;28;20033;-63
2023/09/29 01:30:54;;;;;;;13.98;4.32;;;;;;;17.00;100.00;101371.13;5049992;28;20372;-63
2023/09/29 01:33:21;;;;;;;14.88;4.13;;;;;;;17.02;100.00;101368.38;5061776;28;20039;-64
2023/09/29 01:35:47;;;;;;;22.00;5.20;;;;;;;17.02;100.00;101374.59;5070670;28;20036;-62
2023/09/29 01:38:12;;;;;;;17.70;4.25;;;;;;;17.02;100.00;101374.59;5070425;28;20078;-63
2023/09/29 01:40:38;;;;;;;19.75;4.60;;;;;;;17.02;100.00;101376.38;5071262;28;20715;-63
2023/09/29 01:43:03;;;;;;;11.48;3.92;;;;;;;17.03;100.00;101364.78;5069850;28;20043;-63
2023/09/29 01:45:32;;;;;;;18.98;4.60;;;;;;;17.02;100.00;101363.94;5070964;28;20036;-63
2023/09/29 01:47:57;;;;;;;13.75;3.97;;;;;;;17.10;100.00;101363.53;5069308;28;20074;-63
2023/09/29 01:50:23;;;;;;;15.25;4.07;;;;;;;17.09;100.00;101364.50;5071023;28;20052;-63
2023/09/29 01:52:49;;;;;;;30.58;5.68;;;;;;;17.10;100.00;101368.88;5069596;28;20470;-63
2023/09/29 01:55:16;;;;;;;19.25;4.80;;;;;;;17.17;100.00;101356.97;5069626;28;20029;-65
2023/09/29 01:57:42;;;;;;;17.98;4.07;;;;;;;17.23;100.00;101350.44;5070620;28;20344;-63
2023/09/29 02:00:14;;;;;;;21.63;4.63;;;;;;;17.30;100.00;101356.28;5069965;28;20020;-64
2023/09/29 02:02:40;;;;;;;21.30;4.60;;;;;;;17.35;100.00;101348.91;5069805;28;20085;-60
2023/09/29 02:05:07;;;;;;;15.85;4.25;;;;;;;17.42;100.00;101344.97;5069930;28;20020;-63
2023/09/29 02:07:32;;;;;;;14.93;4.40;;;;;;;17.44;100.00;101342.22;5070053;28;20108;-62
2023/09/29 02:09:58;;;;;;;16.48;4.07;;;;;;;17.41;100.00;101343.25;5072995;28;20115;-63
2023/09/29 02:12:23;;;;;;;20.50;4.63;;;;;;;17.43;100.00;101337.84;5049930;28;20098;-64
2023/09/29 02:14:51;;;;;;;21.38;4.95;;;;;;;17.51;100.00;101342.72;5059186;28;20032;-64
2023/09/29 02:17:16;;;;;;;16.48;4.25;;;;;;;17.52;100.00;101333.81;5069927;28;20020;-62
2023/09/29 02:19:42;;;;;;;16.33;4.22;;;;;;;17.57;100.00;101331.72;5069921;28;20364;-61
2023/09/29 02:22:07;;;;;;;13.52;3.72;;;;;;;17.60;100.00;101328.03;5070061;28;20047;-63
2023/09/29 02:24:33;;;;;;;20.00;4.78;;;;;;;17.59;100.00;101321.88;5074549;28;20111;-63
2023/09/29 02:26:59;;;;;;;17.48;4.32;;;;;;;17.61;100.00;101327.94;5090957;28;20473;-63
2023/09/29 02:29:27;;;;;;;18.83;4.60;;;;;;;17.60;100.00;101320.03;5087164;28;20085;-64
2023/09/29 02:31:55;;;;;;;16.75;3.83;;;;;;;17.65;100.00;101318.88;5069478;28;20052;-62
2023/09/29 02:34:21;;;;;;;17.20;4.10;;;;;;;17.68;100.00;101310.69;5068746;28;20040;-62
2023/09/29 02:36:46;;;;;;;19.85;5.55;;;;;;;17.66;100.00;101314.38;5069969;28;20038;-68
2023/09/29 02:39:12;;;;;;;20.17;4.35;;;;;;;17.69;100.00;101306.19;5069463;28;20371;-63
2023/09/29 02:41:38;;;;;;;18.13;4.55;;;;;;;17.73;100.00;101320.22;5069178;28;20025;-63
2023/09/29 02:44:04;;;;;;;15.70;4.15;;;;;;;17.65;100.00;101329.53;5067477;28;20024;-64
2023/09/29 02:46:29;;;;;;;14.20;3.95;;;;;;;17.72;100.00;101329.16;5068458;28;20088;-64
2023/09/29 02:48:55;;;;;;;15.88;3.78;;;;;;;17.76;100.00;101325.38;5068334;28;20093;-63
2023/09/29 02:51:20;;;;;;;16.38;4.07;;;;;;;17.79;100.00;101325.22;5067818;28;20035;-62
2023/09/29 02:53:50;;;;;;;16.88;4.35;;;;;;;17.76;100.00;101320.06;5069141;28;20059;-64
2023/09/29 02:56:17;;;;;;;17.63;4.65;;;;;;;17.78;100.00;101312.81;5068702;28;20416;-62
2023/09/29 02:58:46;;;;;;;14.35;4.30;;;;;;;17.77;100.00;101311.09;5070014;28;20020;-61
2023/09/29 03:01:12;;;;;;;15.52;3.88;;;;;;;17.76;100.00;101294.25;5068252;28;20020;-65
2023/09/29 03:03:43;;;;;;;14.25;3.95;;;;;;;17.75;100.00;101292.53;5069186;28;20089;-63
2023/09/29 03:06:12;;;;;;;12.70;4.10;;;;;;;17.67;100.00;101284.13;5068666;28;20032;-64
2023/09/29 03:08:38;;;;;;;18.65;4.35;;;;;;;17.59;100.00;101276.56;5068782;28;20045;-65
2023/09/29 03:11:06;;;;;;;16.60;4.63;;;;;;;17.57;100.00;101273.13;5068141;28;20041;-66
2023/09/29 03:13:32;;;;;;;20.13;4.60;;;;;;;17.62;100.00;101271.06;5067083;28;20029;-62
2023/09/29 03:15:57;;;;;;;15.82;4.30;;;;;;;17.67;100.00;101271.66;5066710;28;20024;-64
2023/09/29 03:18:22;;;;;;;14.63;3.88;;;;;;;17.59;100.00;101275.69;5067968;28;20024;-62
2023/09/29 03:20:52;;;;;;;15.18;3.78;;;;;;;17.56;100.00;101266.09;5068452;28;20012;-65
2023/09/29 03:23:17;;;;;;;12.20;4.22;;;;;;;17.51;100.00;101268.13;5068222;28;20013;-64
2023/09/29 03:25:42;;;;;;;12.77;3.97;;;;;;;17.46;100.00;101262.22;5068554;28;20035;-63
2023/09/29 03:28:09;;;;;;;16.42;3.92;;;;;;;17.41;100.00;101259.81;5069695;28;20082;-63
2023/09/29 03:30:35;;;;;;;9.50;3.55;;;;;;;17.41;100.00;101250.03;5068398;28;20036;-64
2023/09/29 03:33:00;;;;;;;15.02;4.03;;;;;;;17.35;100.00;101247.72;5069144;28;20025;-67
2023/09/29 03:35:25;;;;;;;19.02;4.13;;;;;;;17.37;100.00;101245.81;5070043;28;20052;-63
2023/09/29 03:37:51;;;;;;;17.35;4.10;;;;;;;17.27;100.00;101240.16;5084279;28;20050;-63
2023/09/29 03:40:18;;;;;;;14.18;3.92;;;;;;;17.30;100.00;101239.09;5090183;28;20016;-68
2023/09/29 03:42:43;;;;;;;13.13;3.90;;;;;;;17.33;100.00;101236.28;5076202;28;20081;-67
2023/09/29 03:45:11;;;;;;;11.90;3.55;;;;;;;17.34;100.00;101230.00;5070251;28;20028;-65
2023/09/29 03:47:36;;;;;;;10.23;3.67;;;;;;;17.36;100.00;101236.09;5069016;28;20036;-65
2023/09/29 03:50:12;;;;;;;12.63;4.25;;;;;;;17.42;100.00;101229.56;5067753;28;20025;-69
2023/09/29 03:52:39;;;;;;;14.18;3.72;;;;;;;17.42;100.00;101213.56;5068611;28;20038;-64
2023/09/29 03:55:04;;;;;;;12.68;3.53;;;;;;;17.41;100.00;101220.72;5069444;28;20028;-64
2023/09/29 03:57:32;;;;;;;13.63;3.35;;;;;;;17.40;100.00;101221.66;5066606;28;20035;-63
2023/09/29 03:59:57;;;;;;;14.30;3.97;;;;;;;17.39;100.00;101216.41;5068357;28;20132;-61
2023/09/29 04:02:22;;;;;;;12.43;3.72;;;;;;;17.44;100.00;101219.69;5067338;28;20449;-63
2023/09/29 04:04:47;;;;;;;15.80;4.40;;;;;;;17.45;100.00;101212.56;5068162;28;20129;-63
2023/09/29 04:07:14;;;;;;;12.73;3.80;;;;;;;17.49;100.00;101216.78;5068382;28;20036;-63
2023/09/29 04:09:40;;;;;;;12.10;3.80;;;;;;;17.42;100.00;101211.78;5068405;28;20483;-64
2023/09/29 04:12:05;;;;;;;12.85;4.03;;;;;;;17.49;100.00;101219.44;5067061;28;20069;-63
2023/09/29 04:14:30;;;;;;;12.38;3.97;;;;;;;17.45;100.00;101221.41;5069308;28;20028;-63
2023/09/29 04:16:56;;;;;;;11.85;4.15;;;;;;;17.51;100.00;101217.53;5066751;28;20032;-64
2023/09/29 04:19:21;;;;;;;12.98;3.90;;;;;;;17.57;100.00;101219.00;5069070;28;20073;-62
2023/09/29 04:21:46;;;;;;;13.18;3.92;;;;;;;17.60;100.00;101214.34;5067529;28;20040;-62
2023/09/29 04:24:12;;;;;;;16.00;3.50;;;;;;;17.66;100.00;101207.78;5069339;28;20029;-62
2023/09/29 04:26:37;;;;;;;12.27;3.72;;;;;;;17.63;100.00;101211.50;5068774;28;20037;-63
2023/09/29 04:29:02;;;;;;;12.70;4.22;;;;;;;17.62;100.00;101204.47;5067800;28;20035;-63
2023/09/29 04:31:28;;;;;;;18.50;3.97;;;;;;;17.65;100.00;101217.59;5067806;28;20496;-62
2023/09/29 04:33:53;;;;;;;17.17;3.83;;;;;;;17.66;100.00;101226.44;5066251;28;20036;-64
2023/09/29 04:36:18;;;;;;;12.40;3.75;;;;;;;17.65;100.00;101230.06;5067510;28;20067;-61
2023/09/29 04:38:45;;;;;;;9.88;3.35;;;;;;;17.66;100.00;101219.31;5054567;28;20032;-64
2023/09/29 04:41:11;;;;;;;16.33;3.72;;;;;;;17.70;100.00;101216.47;5048392;28;20064;-65
2023/09/29 04:43:36;;;;;;;14.40;3.97;;;;;;;17.71;100.00;101216.38;5058847;28;20110;-63
2023/09/29 04:46:02;;;;;;;13.10;3.28;;;;;;;17.73;100.00;101209.13;5067000;28;20060;-63
2023/09/29 04:48:27;;;;;;;11.02;3.50;;;;;;;17.73;100.00;101206.47;5067232;28;20115;-62
2023/09/29 04:50:53;;;;;;;10.68;3.63;;;;;;;17.75;100.00;101203.72;5066719;28;20390;-63
2023/09/29 04:53:19;;;;;;;13.20;3.85;;;;;;;17.82;100.00;101213.06;5074086;28;20028;-63
2023/09/29 04:55:45;;;;;;;12.70;3.33;;;;;;;17.78;100.00;101212.41;5086887;28;20081;-64
2023/09/29 04:58:10;;;;;;;16.88;3.72;;;;;;;17.84;100.00;101207.66;5084729;28;20055;-63
2023/09/29 05:00:36;;;;;;;11.50;3.50;;;;;;;17.88;100.00;101202.06;5067891;28;20111;-63
2023/09/29 05:03:01;;;;;;;10.40;3.63;;;;;;;17.82;100.00;101210.41;5067830;28;20059;-63
2023/09/29 05:05:27;;;;;;;9.68;3.08;;;;;;;17.84;100.00;101200.53;5066913;28;20037;-62
2023/09/29 05:07:52;;;;;;;9.52;3.40;;;;;;;17.86;100.00;101198.63;5067470;28;20055;-63
2023/09/29 05:10:19;;;;;;;11.10;3.40;;;;;;;17.88;100.00;101193.22;5067389;28;20029;-64
2023/09/29 05:12:44;;;;;;;9.30;3.78;;;;;;;17.90;100.00;101189.50;5066952;28;20383;-65
2023/09/29 05:15:10;;;;;;;12.77;3.85;;;;;;;17.85;100.00;101196.06;5067085;28;20064;-65
2023/09/29 05:17:35;;;;;;;11.73;3.53;;;;;;;17.85;100.00;101196.06;5065657;28;20115;-64
2023/09/29 05:20:01;;;;;;;12.13;3.45;;;;;;;17.89;100.00;101194.91;5067651;28;20491;-63
2023/09/29 05:22:26;;;;;;;15.73;3.42;;;;;;;17.90;100.00;101197.50;5068103;28;20169;-63
2023/09/29 05:24:55;;;;;;;9.40;3.50;;;;;;;17.91;100.00;101196.53;5065713;28;20059;-64
2023/09/29 05:27:20;;;;;;;11.57;3.42;;;;;;;17.97;100.00;101199.81;5057346;28;20037;-66
2023/09/29 05:29:45;;;;;;;15.88;3.17;;;;;;;17.95;100.00;101199.91;5050709;28;20070;-64
2023/09/29 05:32:11;;;;;;;10.95;3.25;;;;;;;18.02;100.00;101201.25;5066674;28;20108;-64
2023/09/29 05:34:36;;;;;;;12.18;3.30;;;;;;;18.08;100.00;101208.00;5067741;28;20052;-65
2023/09/29 05:37:02;;;;;;;11.32;3.15;;;;;;;18.11;100.00;101210.53;5069074;28;20028;-66
2023/09/29 05:39:27;;;;;;;11.15;3.45;;;;;;;18.11;100.00;101207.84;5088875;28;20042;-64
2023/09/29 05:41:52;;;;;;;9.82;3.25;;;;;;;18.09;100.00;101201.72;5086673;28;20085;-63
2023/09/29 05:44:18;;;;;;;10.35;3.08;;;;;;;18.18;100.00;101208.31;5077955;28;20035;-64
2023/09/29 05:46:43;;;;;;;9.85;3.03;;;;;;;18.24;100.00;101212.47;5087549;28;20031;-64
2023/09/29 05:49:09;;;;;;;12.13;3.05;;;;;;;18.22;100.00;101203.69;5077497;28;20031;-63
2023/09/29 05:51:35;;;;;;;9.85;3.30;;;;;;;18.17;100.00;101204.81;5091102;28;20028;-64
2023/09/29 05:54:02;;;;;;;6.60;2.67;;;;;;;18.22;100.00;101199.22;5091059;28;20498;-63
2023/09/29 05:56:29;;;;;;;4.40;2.55;;;;;;;18.23;100.00;101208.06;5086274;28;20047;-64
2023/09/29 05:58:55;;;;;;;8.95;3.03;;;;;;;18.19;100.00;101199.41;5083626;28;20021;-64
2023/09/29 06:01:21;;;;;;;9.25;3.42;;;;;;;18.20;100.00;101201.09;5088764;28;20355;-62
2023/09/29 06:03:46;;;;;;;7.40;2.80;;;;;;;18.18;100.00;101203.88;5089562;28;20339;-62
2023/09/29 06:06:11;;;;;;;7.68;2.92;;;;;;;18.19;100.00;101208.25;5077599;28;20033;-64
2023/09/29 06:08:37;;;;;;;8.88;2.97;;;;;;;18.22;100.00;101203.69;5069818;28;20119;-63
2023/09/29 06:11:03;;;;;;;10.82;2.90;;;;;;;18.24;100.00;101210.63;5073538;28;20498;-63
2023/09/29 06:13:29;;;;;;;6.95;2.67;;;;;;;18.26;100.00;101211.41;5080051;28;20030;-62
2023/09/29 06:15:56;;;;;;;12.48;3.22;;;;;;;18.33;100.00;101213.69;5088613;28;20023;-62
2023/09/29 06:18:21;;;;;;;9.40;2.80;;;;;;;18.35;100.00;101220.66;5074278;28;20024;-63
2023/09/29 06:20:47;;;;;;;9.32;3.20;;;;;;;18.36;100.00;101218.84;5078345;28;20039;-63
2023/09/29 06:23:12;;;;;;;7.63;2.72;;;;;;;18.43;100.00;101217.53;5090215;28;20028;-64
2023/09/29 06:25:37;;;;;;;10.50;3.00;;;;;;;18.44;100.00;101220.09;5083175;28;20024;-65
2023/09/29 06:28:03;;;;;;;4.60;2.55;;;;;;;18.56;100.00;101229.16;5085546;28;20020;-64
2023/09/29 06:30:28;;;;;;;10.18;2.60;;;;;;;18.57;100.00;101224.66;5082579;28;20021;-63
2023/09/29 06:32:54;;;;;;;9.10;3.15;;;;;;;18.63;100.00;101229.63;5071305;28;20112;-64
2023/09/29 06:35:19;;;;;;;7.88;2.92;;;;;;;18.69;100.00;101229.25;5089509;28;20069;-64
2023/09/29 06:37:44;;;;;;;12.55;3.65;;;;;;;18.77;100.00;101238.56;5082179;28;20035;-65
2023/09/29 06:40:10;;;;;;;9.63;2.72;;;;;;;18.82;100.00;101240.00;5073275;28;20025;-64
2023/09/29 06:42:37;;;;;;;10.20;2.90;;;;;;;18.88;100.00;101237.91;5088066;28;20456;-64
2023/09/29 06:45:04;;;;;;;7.28;2.83;;;;;;;18.94;100.00;101241.03;5087699;28;20066;-64
2023/09/29 06:47:29;;;;;;;7.18;3.28;;;;;;;18.99;100.00;101239.91;5084919;28;20025;-65
2023/09/29 06:49:55;;;;;;;6.68;2.95;;;;;;;19.11;100.00;101243.66;5068770;28;20025;-64
2023/09/29 06:52:21;;;;;;;10.63;3.42;;;;;;;19.15;100.00;101251.34;5067451;28;20472;-63
2023/09/29 06:54:46;;;;;;;10.43;3.25;;;;;;;19.14;100.00;101248.78;5061094;28;20016;-63
2023/09/29 06:57:12;;;;;;;4.88;3.00;;;;;;;19.22;100.00;101246.47;5051733;28;20052;-65
2023/09/29 06:59:37;;;;;;;9.70;2.65;;;;;;;19.25;100.00;101248.09;5060240;28;20049;-66
2023/09/29 07:02:03;;;;;;;9.05;2.83;;;;;;;19.11;100.00;101244.47;5059175;28;20056;-67
2023/09/29 07:04:28;;;;;;;7.53;3.25;;;;;;;19.26;100.00;101245.31;5057784;28;20352;-66
2023/09/29 07:06:53;;;;;;;10.63;3.03;;;;;;;19.34;100.00;101243.97;5060337;28;20036;-63
2023/09/29 07:09:18;;;;;;;11.13;3.25;;;;;;;19.36;100.00;101245.59;5066597;28;20125;-64
2023/09/29 07:11:44;;;;;;;9.60;3.13;;;;;;;19.35;100.00;101254.53;5067398;28;20044;-65
2023/09/29 07:14:09;;;;;;;10.88;3.40;;;;;;;19.39;100.00;101245.38;5066890;28;20466;-64
2023/09/29 07:16:35;;;;;;;11.07;2.85;;;;;;;19.35;100.00;101246.53;5061614;28;20442;-63
2023/09/29 07:19:01;;;;;;;5.40;3.10;;;;;;;19.38;100.00;101246.34;5051539;28;20056;-64
2023/09/29 07:21:26;;;;;;;7.05;3.35;;;;;;;19.38;100.00;101250.84;5068642;28;20056;-63
2023/09/29 07:23:52;;;;;;;11.25;3.70;;;;;;;19.38;100.00;101251.69;5067479;28;20119;-64
2023/09/29 07:26:18;;;;;;;12.18;3.47;;;;;;;19.37;100.00;101255.31;5087518;28;20627;-65
2023/09/29 07:28:43;;;;;;;9.65;3.15;;;;;;;19.41;100.00;101254.16;5087198;28;20028;-66
2023/09/29 07:31:08;;;;;;;10.50;4.47;;;;;;;19.39;100.00;101260.56;5067370;28;20031;-64
2023/09/29 07:33:34;;;;;;;7.45;3.20;;;;;;;19.55;100.00;101263.09;5082942;28;20113;-65
2023/09/29 07:35:59;;;;;;;11.20;3.50;;;;;;;19.62;100.00;101259.03;5066480;28;20127;-63
2023/09/29 07:38:25;;;;;;;5.10;3.28;;;;;;;19.56;100.00;101262.13;5067110;28;20052;-62
2023/09/29 07:40:50;;;;;;;7.45;3.30;;;;;;;19.66;100.00;101259.72;5065922;28;20027;-65
2023/09/29 07:43:16;;;;;;;7.10;3.08;;;;;;;19.83;100.00;101266.59;5064619;28;20048;-63
2023/09/29 07:45:42;;;;;;;11.63;3.38;;;;;;;19.81;100.00;101271.22;5066747;28;20052;-63
2023/09/29 07:48:07;;;;;;;10.23;3.20;;;;;;;19.90;100.00;101267.06;5065928;28;20033;-62
2023/09/29 07:50:32;;;;;;;6.32;2.88;;;;;;;19.95;100.00;101263.13;5065746;28;20063;-63
2023/09/29 07:52:59;;;;;;;8.25;2.95;;;;;;;19.98;100.00;101269.22;5066629;28;20021;-64
2023/09/29 07:55:25;;;;;;;10.57;3.50;;;;;;;20.04;100.00;101271.50;5065268;28;20032;-65
2023/09/29 07:57:51;;;;;;;7.95;3.47;;;;;;;20.21;100.00;101273.03;5066702;28;20039;-64
2023/09/29 08:00:16;;;;;;;7.65;3.30;;;;;;;20.28;100.00;101270.78;5065321;28;20046;-64
2023/09/29 08:02:43;;;;;;;4.97;2.65;;;;;;;20.40;100.00;101269.94;5064947;28;20115;-64
2023/09/29 08:05:09;;;;;;;6.90;2.97;;;;;;;20.50;100.00;101280.03;5066805;28;20036;-65
2023/09/29 08:07:35;;;;;;;5.47;2.72;;;;;;;20.61;100.00;101271.22;5065099;28;20031;-63
2023/09/29 08:10:00;;;;;;;7.10;3.17;;;;;;;20.71;100.00;101278.50;5066059;28;20024;-63
2023/09/29 08:12:26;;;;;;;6.40;3.17;;;;;;;20.84;100.00;101283.00;5065732;28;20364;-63
2023/09/29 08:14:51;;;;;;;5.70;3.28;;;;;;;21.03;100.00;101281.72;5064618;28;20038;-63
2023/09/29 08:17:18;;;;;;;7.13;2.83;;;;;;;21.08;100.00;101280.41;5064282;28;20024;-65
2023/09/29 08:19:44;;;;;;;6.53;2.55;;;;;;;21.13;100.00;101285.44;5066098;28;20110;-64
2023/09/29 08:22:09;;;;;;;5.63;3.05;;;;;;;21.25;100.00;101286.38;5065786;28;20021;-65
2023/09/29 08:24:35;;;;;;;10.32;3.35;;;;;;;21.24;100.00;101297.22;5064844;28;20059;-64
2023/09/29 08:27:00;;;;;;;6.95;3.22;;;;;;;21.35;100.00;101297.31;5065882;28;20111;-63
2023/09/29 08:29:26;;;;;;;8.77;2.70;;;;;;;21.27;100.00;101295.19;5064984;28;20028;-63
2023/09/29 08:31:53;;;;;;;9.48;2.90;;;;;;;21.34;100.00;101298.25;5066191;28;20035;-64
2023/09/29 08:34:19;;;;;;;7.50;2.97;;;;;;;21.41;100.00;101304.91;5065713;28;20024;-63
2023/09/29 08:36:45;;;;;;;8.77;3.13;;;;;;;21.34;100.00;101311.66;5066360;28;20241;-65
2023/09/29 08:39:10;;;;;;;6.22;2.90;;;;;;;21.54;100.00;101301.31;5065902;28;20024;-63
2023/09/29 08:41:36;;;;;;;7.93;2.45;;;;;;;21.64;100.00;101301.50;5066397;28;20034;-64
2023/09/29 08:44:03;;;;;;;3.28;2.33;;;;;;;21.63;100.00;101303.31;5063611;28;20115;-63
2023/09/29 08:46:29;;;;;;;8.30;3.05;;;;;;;21.74;100.00;101302.53;5065424;28;20527;-63
2023/09/29 08:48:55;;;;;;;4.35;2.72;;;;;;;21.76;100.00;101300.59;5063497;28;20017;-64
2023/09/29 08:51:20;;;;;;;5.38;2.70;;;;;;;21.93;100.00;101306.53;5064611;28;20424;-64
2023/09/29 08:53:50;;;;;;;6.47;2.85;;;;;;;22.07;100.00;101310.88;5064487;28;20028;-64
2023/09/29 08:56:16;;;;;;;6.97;2.63;;;;;;;22.10;100.00;101316.00;5065314;28;20162;-64
2023/09/29 08:58:42;;;;;;;6.78;2.75;;;;;;;22.18;100.00;101316.28;5063221;28;20310;-63
2023/09/29 09:01:08;;;;;;;7.22;2.40;;;;;;;22.28;100.00;101312.88;5059817;28;20035;-63
2023/09/29 09:03:34;;;;;;;8.05;2.33;;;;;;;22.15;100.00;101316.50;5065851;28;20040;-63
2023/09/29 09:05:59;;;;;;;4.30;2.65;;;;;;;22.04;100.00;101327.19;5062037;28;20489;-62
2023/09/29 09:08:26;;;;;;;7.18;2.67;;;;;;;21.90;100.00;101321.03;5072152;28;20407;-63
2023/09/29 09:10:58;;;;;;;7.72;3.05;;;;;;;21.65;100.00;101324.66;5065389;28;20475;-64
2023/09/29 09:13:26;;;;;;;5.93;2.60;;;;;;;21.49;100.00;101324.94;5057992;28;20020;-64
2023/09/29 09:15:58;;;;;;;5.32;2.72;;;;;;;21.39;100.00;101330.97;5051009;28;20017;-62
2023/09/29 09:18:29;;;;;;;7.93;2.80;;;;;;;21.32;100.00;101329.69;5052154;28;20048;-64
2023/09/29 09:20:56;;;;;;;8.10;2.70;;;;;;;21.10;100.00;101339.25;5059154;28;20108;-62
2023/09/29 09:23:22;;;;;;;3.40;2.55;;;;;;;21.12;100.00;101337.34;5052595;28;20021;-64
2023/09/29 09:25:47;;;;;;;3.28;2.58;;;;;;;21.17;100.00;101343.22;5050133;28;20648;-63
2023/09/29 09:28:17;;;;;;;4.78;2.70;;;;;;;21.35;100.00;101340.19;5066365;28;20032;-63
2023/09/29 09:30:43;;;;;;;6.95;3.20;;;;;;;21.54;100.00;101336.16;5049922;28;20155;-63
2023/09/29 09:33:21;;;;;;;4.63;2.83;;;;;;;21.63;100.00;101340.00;5066324;28;20116;-64
2023/09/29 09:35:47;;;;;;;6.45;2.85;;;;;;;21.64;100.00;101342.56;5050471;28;20017;-64
2023/09/29 09:38:13;;;;;;;7.85;2.80;;;;;;;21.58;100.00;101354.59;5050680;28;20471;-62
2023/09/29 09:40:38;;;;;;;3.88;2.97;;;;;;;21.58;100.00;101356.41;5050372;28;20116;-63
2023/09/29 09:43:06;;;;;;;4.15;2.72;;;;;;;21.54;100.00;101360.28;5049602;28;20025;-64
2023/09/29 09:45:39;;;;;;;5.03;3.20;;;;;;;21.36;100.00;101362.47;5050621;28;20040;-63
2023/09/29 09:48:07;;;;;;;6.18;3.30;;;;;;;21.06;100.00;101356.50;5065307;28;20479;-61
2023/09/29 09:50:36;;;;;;;8.95;3.05;;;;;;;21.08;100.00;101365.31;5050075;28;20032;-64
2023/09/29 09:53:07;;;;;;;5.70;3.28;;;;;;;21.09;100.00;101372.38;5049488;28;20009;-64
2023/09/29 09:55:50;;;;;;;5.47;3.53;;;;;;;21.06;100.00;101375.28;5050292;28;20525;-68
2023/09/29 09:58:16;;;;;;;7.15;3.42;;;;;;;21.15;100.00;101371.06;5049626;28;20036;-64
2023/09/29 10:00:46;;;;;;;6.88;3.58;;;;;;;21.15;100.00;101371.94;5053643;28;20020;-65
2023/09/29 10:03:12;;;;;;;4.50;3.35;;;;;;;21.37;100.00;101380.28;5062439;28;20028;-67
2023/09/29 10:05:41;;;;;;;6.13;3.50;;;;;;;21.49;100.00;101384.75;5061571;28;20086;-65
2023/09/29 10:08:06;;;;;;;;;;;;;;;21.39;100.00;101387.25;5074346;28;20040;-63
2023/09/29 10:10:34;;;;;;;6.95;4.15;;;;;;;21.33;100.00;101391.22;5069317;28;19919;-67
2023/09/29 10:13:04;;;;;;;4.13;3.53;;;;;;;21.31;100.00;101395.00;5069603;28;20028;-65
2023/09/29 10:15:30;;;;;;;9.20;4.00;;;;;;;21.20;100.00;101396.56;5068736;28;20146;-65
2023/09/29 10:17:59;;;;;;;6.38;3.95;;;;;;;21.03;100.00;101394.22;5069391;28;20119;-63
2023/09/29 10:20:26;;;;;;;9.82;4.00;;;;;;;20.83;100.00;101404.50;5069339;28;20069;-64
2023/09/29 10:23:06;;;;;;;10.07;4.32;;;;;;;20.53;100.00;101443.94;5060951;28;20016;-68
2023/09/29 10:25:33;;;;;;;2.13;1.80;;;;;;;20.24;100.00;101443.19;5058150;28;20029;-66
2023/09/29 10:28:00;;;;;;;1.83;1.23;;;;;;;19.91;100.00;101450.59;5058091;28;20032;-65
2023/09/29 10:30:26;;;;;;;4.40;1.50;;;;;;;19.69;100.00;101447.47;5060327;28;20371;-66
2023/09/29 10:33:05;;;;;;;4.32;1.27;;;;;;;19.59;100.00;101450.84;5055959;28;20105;-66
2023/09/29 10:35:31;;;;;;;5.25;1.40;;;;;;;19.46;100.00;101470.31;5059840;28;20049;-67
2023/09/29 10:37:58;;;;;;;5.75;1.13;;;;;;;19.24;100.00;101489.47;5059459;28;20162;-66
2023/09/29 10:40:31;;;;;;;7.90;1.25;;;;;;;19.18;100.00;101480.84;5057188;28;20025;-68
2023/09/29 10:43:03;;;;;;;6.80;1.70;;;;;;;19.09;100.00;101486.78;5058079;28;20039;-69
2023/09/29 10:45:40;;;;;;;5.00;1.50;;;;;;;19.18;100.00;101491.53;5059644;28;20089;-69
2023/09/29 10:48:09;;;;;;;4.70;1.33;;;;;;;19.31;100.00;101496.16;5059504;28;20430;-66
2023/09/29 10:50:53;;;;;;;4.25;1.50;;;;;;;19.23;100.00;101498.44;5064335;28;20364;-70
2023/09/29 10:53:21;;;;;;;4.13;1.40;;;;;;;19.26;100.00;101506.28;5057772;28;20048;-65
2023/09/29 10:55:51;;;;;;;;;;;;;;;19.13;100.00;101512.34;5084115;28;20517;-68
2023/09/29 10:58:17;;;;;;;4.95;1.40;;;;;;;19.04;100.00;101516.41;5067187;28;20324;-68
2023/09/29 11:00:47;;;;;;;9.05;1.50;;;;;;;18.86;100.00;101534.34;5084015;28;20023;-72
2023/09/29 11:03:15;;;;;;;4.28;1.38;;;;;;;18.71;100.00;101519.22;5066605;28;20017;-71
2023/09/29 11:05:50;;;;;;;10.02;1.50;;;;;;;18.66;100.00;101531.03;5084043;28;20028;-68
2023/09/29 11:08:19;;;;;;;6.43;1.40;;;;;;;18.54;100.00;101537.06;5059738;28;20041;-67